createdAt,value
2023-03-11T00:01:27.859Z,62.63
2023-03-11T00:06:36.464Z,62.17
2023-03-11T00:11:41.981Z,61.94
2023-03-11T00:16:47.618Z,62.15
2023-03-11T00:21:53.240Z,62.57
2023-03-11T00:26:58.927Z,62.46
2023-03-11T00:32:04.620Z,62.50
2023-03-11T00:37:10.144Z,63.03
2023-03-11T00:42:15.637Z,62.22
2023-03-11T00:47:21.259Z,61.20
2023-03-11T00:52:26.788Z,60.29
2023-03-11T00:57:32.564Z,60.44
2023-03-11T01:02:39.551Z,61.09
2023-03-11T01:07:45.047Z,60.14
2023-03-11T01:12:50.585Z,60.19
2023-03-11T01:17:55.949Z,59.90
2023-03-11T01:23:01.580Z,59.75
2023-03-11T01:28:08.973Z,60.07
2023-03-11T01:33:17.596Z,60.08
2023-03-11T01:38:23.113Z,60.38
2023-03-11T01:43:43.501Z,60.74
2023-03-11T01:49:13.929Z,60.86
2023-03-11T01:54:36.790Z,61.35
2023-03-11T01:59:52.545Z,61.93
2023-03-11T02:04:58.381Z,62.06
2023-03-11T02:10:05.431Z,62.80
2023-03-11T02:15:12.661Z,63.00
2023-03-11T02:20:38.799Z,61.85
2023-03-11T02:26:19.593Z,61.75
2023-03-11T02:31:26.752Z,61.04
2023-03-11T02:36:41.362Z,61.47
2023-03-11T02:41:52.597Z,60.76
2023-03-11T02:47:01.718Z,61.02
2023-03-11T02:52:08.401Z,60.26
2023-03-11T02:57:13.809Z,59.77
2023-03-11T03:02:19.889Z,59.09
2023-03-11T03:07:26.325Z,60.14
2023-03-11T03:12:33.811Z,59.35
2023-03-11T03:17:39.989Z,59.58
2023-03-11T03:22:46.166Z,60.05
2023-03-11T03:27:54.254Z,58.54
2023-03-11T03:33:00.458Z,58.77
2023-03-11T03:38:07.247Z,58.86
2023-03-11T03:43:12.899Z,58.49
2023-03-11T03:48:20.841Z,59.01
2023-03-11T03:53:26.450Z,58.31
2023-03-11T03:58:32.167Z,58.49
2023-03-11T04:03:39.666Z,58.73
2023-03-11T04:08:52.890Z,59.44
2023-03-11T04:14:05.051Z,59.05
2023-03-11T04:19:16.391Z,60.05
2023-03-11T04:24:22.403Z,61.01
2023-03-11T04:29:28.108Z,60.74
2023-03-11T04:34:34.110Z,60.64
2023-03-11T04:39:40.078Z,61.06
2023-03-11T04:44:46.068Z,60.44
2023-03-11T04:49:52.212Z,60.85
2023-03-11T04:54:57.643Z,60.99
2023-03-11T05:00:11.427Z,60.22
2023-03-11T05:05:22.297Z,59.40
2023-03-11T05:10:28.568Z,59.20
2023-03-11T05:15:38.131Z,58.78
2023-03-11T05:20:44.785Z,60.59
2023-03-11T05:25:52.009Z,59.11
2023-03-11T05:30:57.832Z,58.62
2023-03-11T05:36:09.036Z,60.03
2023-03-11T05:41:16.853Z,59.41
2023-03-11T05:46:23.606Z,59.66
2023-03-11T05:51:30.003Z,59.95
2023-03-11T05:56:35.633Z,59.75
2023-03-11T06:01:43.800Z,60.32
2023-03-11T06:06:49.842Z,60.44
2023-03-11T06:12:00.627Z,59.53
2023-03-11T06:17:17.499Z,60.16
2023-03-11T06:22:23.194Z,59.60
2023-03-11T06:27:28.661Z,60.82
2023-03-11T06:32:36.098Z,60.76
2023-03-11T06:37:42.031Z,61.53
2023-03-11T06:42:48.472Z,62.37
2023-03-11T06:47:55.362Z,62.00
2023-03-11T06:53:01.010Z,62.24
2023-03-11T06:58:06.612Z,62.69
2023-03-11T10:39:03.036Z,64.46
2023-03-11T10:44:21.431Z,65.05
2023-03-11T10:49:26.739Z,64.83
2023-03-11T10:54:35.986Z,65.63
2023-03-11T10:59:51.259Z,64.94
2023-03-11T11:05:41.256Z,66.44
2023-03-11T11:10:58.263Z,65.90
2023-03-11T11:16:17.994Z,67.09
2023-03-11T11:21:44.152Z,66.63
2023-03-11T11:27:17.415Z,67.39
2023-03-11T11:32:27.268Z,67.09
2023-03-11T11:37:35.581Z,66.42
2023-03-11T11:42:47.497Z,66.79
2023-03-11T11:47:59.421Z,66.39
2023-03-11T11:53:44.551Z,66.21
2023-03-11T11:58:49.683Z,65.67
2023-03-11T12:04:39.390Z,66.88
2023-03-11T12:10:23.707Z,65.97
2023-03-11T12:15:41.402Z,66.76
2023-03-11T12:20:50.961Z,65.67
2023-03-11T12:25:55.935Z,66.44
2023-03-11T12:31:08.150Z,65.85
2023-03-11T12:36:33.335Z,65.03
2023-03-11T12:41:45.629Z,65.81
2023-03-11T12:47:00.352Z,65.59
2023-03-11T12:52:15.004Z,65.25
2023-03-11T12:57:20.018Z,65.96
2023-03-11T13:02:45.189Z,66.26
2023-03-11T13:07:54.619Z,66.29
2023-03-11T13:12:59.943Z,66.46
2023-03-11T13:18:16.192Z,66.07
2023-03-11T13:23:29.344Z,66.02
2023-03-11T13:29:05.485Z,65.23
2023-03-11T13:34:23.589Z,66.28
2023-03-11T13:39:57.028Z,65.73
2023-03-11T13:45:02.008Z,66.31
2023-03-11T13:50:29.576Z,65.34
2023-03-11T13:55:47.099Z,65.50
2023-03-11T14:00:54.627Z,65.89
2023-03-11T14:06:05.732Z,66.25
2023-03-11T14:11:12.781Z,65.38
2023-03-11T14:16:36.522Z,66.90
2023-03-11T14:21:50.529Z,66.26
2023-03-11T14:26:56.882Z,66.17
2023-03-11T14:32:01.158Z,66.42
2023-03-11T14:37:35.562Z,66.59
2023-03-11T14:42:42.189Z,67.04
2023-03-11T14:48:10.279Z,66.67
2023-03-11T14:53:31.893Z,67.38
2023-03-11T14:58:51.094Z,66.23
2023-03-11T15:04:22.886Z,66.78
2023-03-11T15:09:30.294Z,66.70
2023-03-11T15:14:38.075Z,66.76
2023-03-11T15:19:43.270Z,66.85
2023-03-11T15:24:57.834Z,67.02
2023-03-11T15:30:06.489Z,67.13
2023-03-11T15:35:17.460Z,66.25
2023-03-11T15:40:44.433Z,66.61
2023-03-11T15:45:54.877Z,66.98
2023-03-11T15:51:01.663Z,68.64
2023-03-11T15:56:15.481Z,68.76
2023-03-11T16:01:24.259Z,68.92
2023-03-11T16:06:29.568Z,69.71
2023-03-11T16:11:36.453Z,69.13
2023-03-11T16:16:41.374Z,68.46
2023-03-11T16:21:50.864Z,68.60
2023-03-11T16:26:56.121Z,68.34
2023-03-11T16:32:00.169Z,68.72
2023-03-11T16:37:09.241Z,69.55
2023-03-11T16:42:13.455Z,68.44
2023-03-11T16:47:19.777Z,69.99
2023-03-11T16:52:24.342Z,69.90
2023-03-11T16:57:29.382Z,70.93
2023-03-11T17:02:35.071Z,70.38
2023-03-11T17:07:41.254Z,71.17
2023-03-11T17:12:46.592Z,70.12
2023-03-11T17:17:52.110Z,70.67
2023-03-11T17:22:57.124Z,70.60
2023-03-11T17:28:02.424Z,70.44
2023-03-11T17:33:07.625Z,70.46
2023-03-11T17:38:14.715Z,70.86
2023-03-11T17:43:24.662Z,71.05
2023-03-11T17:48:29.989Z,70.59
2023-03-11T17:53:36.491Z,70.49
2023-03-11T17:58:41.642Z,70.20
2023-03-11T18:03:46.963Z,71.92
2023-03-11T18:08:52.038Z,72.70
2023-03-11T18:13:56.177Z,73.07
2023-03-11T18:19:01.425Z,73.16
2023-03-11T18:24:06.974Z,72.45
2023-03-11T18:29:11.979Z,71.63
2023-03-11T18:34:17.022Z,72.05
2023-03-11T18:39:22.615Z,72.27
2023-03-11T18:44:28.436Z,71.64
2023-03-11T18:49:33.501Z,71.65
2023-03-11T18:54:39.190Z,71.22
2023-03-11T18:59:44.452Z,72.21
2023-03-11T19:04:49.819Z,72.80
2023-03-11T19:09:55.362Z,70.97
2023-03-11T19:15:00.330Z,71.37
2023-03-11T19:20:11.398Z,71.30
2023-03-11T19:25:15.555Z,71.20
2023-03-11T19:30:22.003Z,71.45
2023-03-11T19:35:26.965Z,70.96
2023-03-11T19:40:34.001Z,71.97
2023-03-11T19:45:40.430Z,70.60
2023-03-11T19:50:45.797Z,70.68
2023-03-11T19:55:57.112Z,72.39
2023-03-11T20:01:27.073Z,71.97
2023-03-11T20:06:31.284Z,72.10
2023-03-11T20:11:41.031Z,71.58
2023-03-11T20:16:46.484Z,71.42
2023-03-11T20:21:51.526Z,70.76
2023-03-11T20:26:55.788Z,70.76
2023-03-11T20:32:00.615Z,72.05
2023-03-11T20:37:05.987Z,72.69
2023-03-11T20:42:11.469Z,72.76
2023-03-11T20:47:17.193Z,73.26
2023-03-11T20:52:22.531Z,73.78
2023-03-11T20:57:27.566Z,73.43
2023-03-11T21:02:35.382Z,73.83
2023-03-11T21:07:40.815Z,73.22
2023-03-11T21:12:45.973Z,74.15
2023-03-11T21:17:50.129Z,74.81
2023-03-11T21:22:55.499Z,73.70
2023-03-11T21:28:00.658Z,73.83
2023-03-11T21:33:06.231Z,74.02
2023-03-11T21:38:11.698Z,74.07
2023-03-11T21:43:17.691Z,74.90
2023-03-11T21:48:23.321Z,75.02
2023-03-11T21:53:31.296Z,74.74
2023-03-11T21:58:36.831Z,76.72
2023-03-11T22:03:42.612Z,76.90
2023-03-11T22:08:48.181Z,76.76
2023-03-11T22:13:55.074Z,77.09
2023-03-11T22:19:00.141Z,76.21
2023-03-11T22:24:07.007Z,76.97
2023-03-11T22:29:13.750Z,76.87
2023-03-11T22:34:17.951Z,77.57
2023-03-11T22:39:22.479Z,76.42
2023-03-11T22:44:29.830Z,77.33
2023-03-11T22:49:35.302Z,77.07
2023-03-11T22:54:41.037Z,77.55
2023-03-11T22:59:46.172Z,77.35
2023-03-11T23:04:51.606Z,78.23
2023-03-11T23:09:56.570Z,78.87
2023-03-11T23:15:03.877Z,77.78
2023-03-11T23:20:14.322Z,78.24
2023-03-11T23:25:21.889Z,77.69
2023-03-11T23:30:27.854Z,77.96
2023-03-11T23:35:34.106Z,78.25
2023-03-11T23:40:42.191Z,78.00
2023-03-11T23:45:48.299Z,78.44
2023-03-11T23:50:54.735Z,78.19
2023-03-11T23:55:59.044Z,77.82
